Time;durP1;ratioP1;P1;durP2;ratioP2;P2;SDS_P1;SDS_P2;PMS_P1;PMS_P2;Temp;Humidity;BMP_temperature;BMP_pressure;BME280_temperature;BME280_humidity;BME280_pressure;Samples;Min_cycle;Max_cycle;Signal;HPM_P1;HPM_P2
2020/12/14 00:00:27;;;;;;;52.13;34.17;;;;;;;;;;6285215;28;20131;-71
2020/12/14 00:03:28;;;;;;;55.13;34.00;;;;;;;;;;6288086;28;20094;-73
2020/12/14 00:06:30;;;;;;;50.20;33.35;;;;;;;;;;6285601;28;20674;-74
2020/12/14 00:09:31;;;;;;;48.35;32.33;;;;;;;;;;6282513;28;20167;-69
2020/12/14 00:12:32;;;;;;;49.10;34.35;;;;;;;;;;6280691;28;20056;-70
2020/12/14 00:15:33;;;;;;;47.08;32.35;;;;;;;;;;6272230;28;20045;-69
2020/12/14 00:18:34;;;;;;;48.17;33.50;;;;;;;;;;6267975;28;20731;-70
2020/12/14 00:21:36;;;;;;;51.15;33.65;;;;;;;;;;6274917;28;20051;-71
2020/12/14 00:24:37;;;;;;;53.60;33.97;;;;;;;;;;6276274;28;20041;-70
2020/12/14 00:27:38;;;;;;;53.03;33.63;;;;;;;;;;6278427;28;20182;-70
2020/12/14 00:30:39;;;;;;;56.85;35.75;;;;;;;;;;6276693;28;20462;-71
2020/12/14 00:33:40;;;;;;;54.00;35.53;;;;;;;;;;6281921;28;20045;-71
2020/12/14 00:36:44;;;;;;;52.92;34.90;;;;;;;;;;6276399;28;20059;-70
2020/12/14 00:39:45;;;;;;;60.25;35.78;;;;;;;;;;6276842;28;20040;-70
2020/12/14 00:42:46;;;;;;;53.60;34.42;;;;;;;;;;6270603;28;20064;-70
2020/12/14 00:45:47;;;;;;;52.55;35.08;;;;;;;;;;6273716;28;20123;-72
2020/12/14 00:48:48;;;;;;;54.75;35.60;;;;;;;;;;6278276;28;20090;-76
2020/12/14 00:51:50;;;;;;;52.38;34.50;;;;;;;;;;6277905;28;20136;-72
2020/12/14 00:54:51;;;;;;;53.47;35.30;;;;;;;;;;6271000;28;20049;-71
2020/12/14 00:57:52;;;;;;;54.95;36.03;;;;;;;;;;6278591;28;20093;-71
2020/12/14 01:00:54;;;;;;;52.30;34.92;;;;;;;;;;6280455;28;20135;-73
2020/12/14 01:03:55;;;;;;;51.30;34.40;;;;;;;;;;6278343;28;20074;-71
2020/12/14 01:06:57;;;;;;;52.03;33.90;;;;;;;;;;6285764;28;20053;-71
2020/12/14 01:09:58;;;;;;;44.55;31.45;;;;;;;;;;6286746;28;20110;-70
2020/12/14 01:12:59;;;;;;;44.10;29.92;;;;;;;;;;6289743;28;20131;-73
2020/12/14 01:16:00;;;;;;;39.10;27.40;;;;;;;;;;6280059;28;20397;-70
2020/12/14 01:19:01;;;;;;;39.78;28.75;;;;;;;;;;6267397;28;20057;-71
2020/12/14 01:22:03;;;;;;;40.63;27.27;;;;;;;;;;6268584;28;20048;-71
2020/12/14 01:25:04;;;;;;;35.90;25.75;;;;;;;;;;6282453;28;20074;-71
2020/12/14 01:28:06;;;;;;;37.90;26.38;;;;;;;;;;6285349;28;20618;-72
2020/12/14 01:31:07;;;;;;;35.58;25.65;;;;;;;;;;6281082;28;20044;-72
2020/12/14 01:34:08;;;;;;;35.92;26.08;;;;;;;;;;6278700;28;20548;-71
2020/12/14 01:37:10;;;;;;;36.47;25.63;;;;;;;;;;6272339;28;20186;-75
2020/12/14 01:40:11;;;;;;;38.08;27.25;;;;;;;;;;6282405;28;20049;-71
2020/12/14 01:43:12;;;;;;;40.53;27.63;;;;;;;;;;6285859;28;20045;-72
2020/12/14 01:46:13;;;;;;;41.33;26.10;;;;;;;;;;6277459;28;20045;-77
2020/12/14 01:49:14;;;;;;;38.05;27.77;;;;;;;;;;6278583;28;20132;-72
2020/12/14 01:52:16;;;;;;;41.03;26.58;;;;;;;;;;6284747;28;20044;-71
2020/12/14 01:55:19;;;;;;;40.60;26.33;;;;;;;;;;6283382;28;20553;-71
2020/12/14 01:58:20;;;;;;;38.22;26.60;;;;;;;;;;6285900;28;20045;-71
2020/12/14 02:01:21;;;;;;;34.10;26.17;;;;;;;;;;6286951;28;20476;-71
2020/12/14 02:04:22;;;;;;;39.80;27.58;;;;;;;;;;6288612;28;20118;-72
2020/12/14 02:07:25;;;;;;;36.22;26.30;;;;;;;;;;6287948;28;20139;-71
2020/12/14 02:10:26;;;;;;;36.75;26.45;;;;;;;;;;6289168;28;20134;-73
2020/12/14 02:13:27;;;;;;;33.97;25.38;;;;;;;;;;6286385;28;20041;-71
2020/12/14 02:16:28;;;;;;;35.28;24.90;;;;;;;;;;6276476;28;20124;-70
2020/12/14 02:19:29;;;;;;;37.33;27.48;;;;;;;;;;6257775;28;20556;-71
2020/12/14 02:22:31;;;;;;;47.70;33.28;;;;;;;;;;6264708;28;20052;-70
2020/12/14 02:25:33;;;;;;;44.95;30.60;;;;;;;;;;6284879;28;20045;-70
2020/12/14 02:28:34;;;;;;;39.60;28.85;;;;;;;;;;6270019;28;20071;-70
2020/12/14 02:31:35;;;;;;;36.00;25.92;;;;;;;;;;6261487;28;20094;-69
2020/12/14 02:34:38;;;;;;;35.15;25.08;;;;;;;;;;6264325;28;20102;-69
2020/12/14 02:37:39;;;;;;;38.63;28.45;;;;;;;;;;6264181;28;20056;-70
2020/12/14 02:40:41;;;;;;;40.58;26.05;;;;;;;;;;6254653;28;20128;-71
2020/12/14 02:43:42;;;;;;;38.53;27.52;;;;;;;;;;6258911;28;20045;-70
2020/12/14 02:46:44;;;;;;;37.35;26.80;;;;;;;;;;6250030;28;20110;-72
2020/12/14 02:49:45;;;;;;;39.85;26.40;;;;;;;;;;6262915;28;20055;-70
2020/12/14 02:52:46;;;;;;;38.95;27.70;;;;;;;;;;6261426;28;20614;-70
2020/12/14 02:55:48;;;;;;;37.38;26.27;;;;;;;;;;6267565;28;20143;-70
2020/12/14 02:58:49;;;;;;;40.05;27.73;;;;;;;;;;6260911;28;21087;-71
2020/12/14 03:01:51;;;;;;;39.75;27.13;;;;;;;;;;6262548;28;20048;-70
2020/12/14 03:04:52;;;;;;;41.42;29.38;;;;;;;;;;6261159;28;20041;-70
2020/12/14 03:07:53;;;;;;;41.40;28.60;;;;;;;;;;6269958;28;20040;-70
2020/12/14 03:10:55;;;;;;;41.42;29.13;;;;;;;;;;6264640;28;20485;-69
2020/12/14 03:13:56;;;;;;;42.20;29.05;;;;;;;;;;6286844;28;20571;-71
2020/12/14 03:16:57;;;;;;;41.85;28.15;;;;;;;;;;6289541;28;20045;-69
2020/12/14 03:19:58;;;;;;;47.67;32.30;;;;;;;;;;6291550;28;20760;-70
2020/12/14 03:22:59;;;;;;;43.60;29.95;;;;;;;;;;6287132;28;20170;-70
2020/12/14 03:26:01;;;;;;;43.67;31.30;;;;;;;;;;6255837;28;20132;-70
2020/12/14 03:29:03;;;;;;;42.35;30.05;;;;;;;;;;6254756;28;20183;-70
2020/12/14 03:32:04;;;;;;;45.17;32.58;;;;;;;;;;6261780;28;20053;-69
2020/12/14 03:35:05;;;;;;;43.63;30.15;;;;;;;;;;6264193;28;20056;-71
2020/12/14 03:38:06;;;;;;;42.17;29.77;;;;;;;;;;6268712;28;20072;-70
2020/12/14 03:41:08;;;;;;;42.88;29.95;;;;;;;;;;6263455;28;20622;-71
2020/12/14 03:44:09;;;;;;;41.92;29.40;;;;;;;;;;6263356;28;20194;-72
2020/12/14 03:47:10;;;;;;;40.58;27.98;;;;;;;;;;6267222;28;20103;-73
2020/12/14 03:50:11;;;;;;;40.42;27.38;;;;;;;;;;6266335;28;20105;-71
2020/12/14 03:53:13;;;;;;;37.58;27.45;;;;;;;;;;6261045;28;20056;-74
2020/12/14 03:56:18;;;;;;;35.75;26.75;;;;;;;;;;6262905;28;20057;-74
2020/12/14 03:59:19;;;;;;;37.55;26.80;;;;;;;;;;6266589;28;20079;-71
2020/12/14 04:02:20;;;;;;;34.95;26.50;;;;;;;;;;6263777;28;20412;-70
2020/12/14 04:05:21;;;;;;;37.08;26.23;;;;;;;;;;6260059;28;20044;-70
2020/12/14 04:08:22;;;;;;;37.28;26.67;;;;;;;;;;6266588;28;20151;-70
2020/12/14 04:11:24;;;;;;;37.03;25.85;;;;;;;;;;6265919;28;20496;-71
2020/12/14 04:14:25;;;;;;;36.83;26.02;;;;;;;;;;6261137;28;20049;-70
2020/12/14 04:17:26;;;;;;;34.42;25.50;;;;;;;;;;6257412;28;20157;-72
2020/12/14 04:20:27;;;;;;;37.40;26.65;;;;;;;;;;6263324;28;20066;-75
2020/12/14 04:23:28;;;;;;;40.50;27.85;;;;;;;;;;6258090;28;20049;-72
2020/12/14 04:26:30;;;;;;;41.58;29.65;;;;;;;;;;6262742;28;20056;-72
2020/12/14 04:29:31;;;;;;;39.63;28.20;;;;;;;;;;6262412;28;20036;-72
2020/12/14 04:32:32;;;;;;;41.60;28.65;;;;;;;;;;6262113;28;20052;-73
2020/12/14 04:35:33;;;;;;;49.88;34.15;;;;;;;;;;6259412;28;20439;-74
2020/12/14 04:38:34;;;;;;;44.65;30.33;;;;;;;;;;6262317;28;20041;-72
2020/12/14 04:41:36;;;;;;;46.25;30.58;;;;;;;;;;6259830;28;20106;-72
2020/12/14 04:44:38;;;;;;;44.28;30.88;;;;;;;;;;6275359;28;20056;-72
2020/12/14 04:47:39;;;;;;;40.00;27.20;;;;;;;;;;6280871;28;20045;-72
2020/12/14 04:50:40;;;;;;;51.78;33.33;;;;;;;;;;6279905;28;20186;-72
2020/12/14 04:53:41;;;;;;;49.17;31.48;;;;;;;;;;6280278;28;20198;-73
2020/12/14 04:56:43;;;;;;;47.60;31.27;;;;;;;;;;6277164;28;20052;-73
2020/12/14 04:59:44;;;;;;;44.58;30.27;;;;;;;;;;6274157;28;20045;-72
2020/12/14 05:02:45;;;;;;;41.03;28.38;;;;;;;;;;6260165;28;20047;-72
2020/12/14 05:05:54;;;;;;;40.60;28.80;;;;;;;;;;6257249;28;20056;-72
2020/12/14 05:08:55;;;;;;;37.83;27.08;;;;;;;;;;6262353;28;20041;-71
2020/12/14 05:11:57;;;;;;;38.60;27.23;;;;;;;;;;6261669;28;20132;-77
2020/12/14 05:15:00;;;;;;;37.60;26.17;;;;;;;;;;6264014;28;20055;-71
2020/12/14 05:18:08;;;;;;;36.33;25.52;;;;;;;;;;6276944;28;20051;-71
2020/12/14 05:21:09;;;;;;;41.80;27.92;;;;;;;;;;6286999;28;20115;-71
2020/12/14 05:24:10;;;;;;;35.33;25.80;;;;;;;;;;6283150;28;20127;-72
2020/12/14 05:27:28;;;;;;;38.53;26.08;;;;;;;;;;6285775;28;20102;-76
2020/12/14 05:30:36;;;;;;;36.58;25.50;;;;;;;;;;6274252;28;20045;-72
2020/12/14 05:33:37;;;;;;;35.22;25.27;;;;;;;;;;6285380;28;20075;-71
2020/12/14 05:36:38;;;;;;;38.28;26.83;;;;;;;;;;6288773;28;20135;-71
2020/12/14 05:39:40;;;;;;;38.97;25.67;;;;;;;;;;6292012;28;20108;-71
2020/12/14 05:42:43;;;;;;;35.08;25.10;;;;;;;;;;6295269;28;20082;-71
2020/12/14 05:45:45;;;;;;;34.67;24.88;;;;;;;;;;6286450;28;20186;-70
2020/12/14 05:48:46;;;;;;;36.72;25.17;;;;;;;;;;6293849;28;20048;-72
2020/12/14 05:51:47;;;;;;;45.67;25.20;;;;;;;;;;6293980;28;20179;-69
2020/12/14 05:54:51;;;;;;;35.38;24.23;;;;;;;;;;6295021;28;20068;-71
2020/12/14 05:57:52;;;;;;;38.75;24.92;;;;;;;;;;6288639;28;20041;-71
2020/12/14 06:00:55;;;;;;;36.70;25.98;;;;;;;;;;6294241;28;20040;-70
2020/12/14 06:03:58;;;;;;;36.28;25.20;;;;;;;;;;6289346;28;20053;-72
2020/12/14 06:07:02;;;;;;;37.00;25.40;;;;;;;;;;6292162;28;20174;-74
2020/12/14 06:10:06;;;;;;;38.95;25.83;;;;;;;;;;6295525;28;20183;-74
2020/12/14 06:13:10;;;;;;;37.30;24.95;;;;;;;;;;6290227;28;20076;-70
2020/12/14 06:16:11;;;;;;;;;;;;;;;;;;6290550;28;20098;-72
2020/12/14 06:19:13;;;;;;;37.47;25.45;;;;;;;;;;6287902;28;20380;-72
2020/12/14 06:22:15;;;;;;;43.55;27.60;;;;;;;;;;6274242;28;20041;-72
2020/12/14 06:25:17;;;;;;;43.28;27.92;;;;;;;;;;6284932;28;20063;-72
2020/12/14 06:28:29;;;;;;;42.78;27.77;;;;;;;;;;6285012;28;20048;-75
2020/12/14 06:31:31;;;;;;;43.53;27.50;;;;;;;;;;6286168;28;20070;-72
2020/12/14 06:34:39;;;;;;;42.33;28.80;;;;;;;;;;6291341;28;20135;-74
2020/12/14 06:37:49;;;;;;;43.90;29.08;;;;;;;;;;6287646;28;20159;-72
2020/12/14 06:40:57;;;;;;;44.72;29.33;;;;;;;;;;6275109;28;20049;-72
2020/12/14 06:44:06;;;;;;;51.30;30.02;;;;;;;;;;6284497;28;20460;-71
2020/12/14 06:47:13;;;;;;;49.53;31.35;;;;;;;;;;6281516;28;20052;-71
2020/12/14 06:50:38;;;;;;;45.63;30.38;;;;;;;;;;6282884;28;20514;-72
2020/12/14 06:53:41;;;;;;;45.33;28.90;;;;;;;;;;6283493;28;20049;-75
2020/12/14 06:56:46;;;;;;;43.17;28.65;;;;;;;;;;6287708;28;20114;-74
2020/12/14 06:59:51;;;;;;;42.25;28.92;;;;;;;;;;6284940;28;20060;-73
2020/12/14 07:02:52;;;;;;;42.22;28.48;;;;;;;;;;6283523;28;20538;-71
2020/12/14 07:05:58;;;;;;;44.92;29.58;;;;;;;;;;6282638;28;20040;-71
2020/12/14 07:08:59;;;;;;;47.28;29.00;;;;;;;;;;6283581;28;20093;-73
2020/12/14 07:12:24;;;;;;;46.38;29.23;;;;;;;;;;6282566;28;20056;-71
2020/12/14 07:15:30;;;;;;;45.55;28.90;;;;;;;;;;6282355;28;20177;-71
2020/12/14 07:18:31;;;;;;;48.30;27.40;;;;;;;;;;6286421;28;20064;-70
2020/12/14 07:21:32;;;;;;;38.63;26.52;;;;;;;;;;6289001;28;20569;-69
2020/12/14 07:24:34;;;;;;;41.42;26.50;;;;;;;;;;6283749;28;20048;-70
2020/12/14 07:27:35;;;;;;;41.22;27.77;;;;;;;;;;6286784;28;20126;-70
2020/12/14 07:30:37;;;;;;;39.30;25.20;;;;;;;;;;6285880;28;20400;-71
2020/12/14 07:33:39;;;;;;;38.80;26.17;;;;;;;;;;6287116;28;20071;-70
2020/12/14 07:36:40;;;;;;;36.78;25.60;;;;;;;;;;6291301;28;20091;-70
2020/12/14 07:39:46;;;;;;;38.40;25.45;;;;;;;;;;6281897;28;20105;-70
2020/12/14 07:42:47;;;;;;;40.28;26.10;;;;;;;;;;6276465;28;20638;-69
2020/12/14 07:45:49;;;;;;;38.53;26.30;;;;;;;;;;6277433;28;20131;-71
2020/12/14 07:48:54;;;;;;;36.47;25.80;;;;;;;;;;6278942;28;20137;-69
2020/12/14 07:51:59;;;;;;;37.03;26.85;;;;;;;;;;6271648;28;20068;-70
2020/12/14 07:55:01;;;;;;;38.35;25.70;;;;;;;;;;6255204;28;20162;-69
2020/12/14 07:58:02;;;;;;;39.50;26.00;;;;;;;;;;6255515;28;20136;-70
2020/12/14 08:01:13;;;;;;;37.92;26.45;;;;;;;;;;6256349;28;20117;-70
2020/12/14 08:04:25;;;;;;;40.55;25.63;;;;;;;;;;6260134;28;20094;-69
2020/12/14 08:07:28;;;;;;;35.22;26.15;;;;;;;;;;6257652;28;20140;-70
2020/12/14 08:10:31;;;;;;;35.77;25.17;;;;;;;;;;6249015;28;20057;-71
2020/12/14 08:13:32;;;;;;;37.35;24.85;;;;;;;;;;6254548;28;20053;-70
2020/12/14 08:16:34;;;;;;;39.22;26.27;;;;;;;;;;6252537;28;20072;-69
2020/12/14 08:19:36;;;;;;;40.63;29.15;;;;;;;;;;6254033;28;20056;-69
2020/12/14 08:22:37;;;;;;;40.42;28.35;;;;;;;;;;6255117;28;20049;-69
2020/12/14 08:25:44;;;;;;;49.15;31.60;;;;;;;;;;6250125;28;20110;-68
2020/12/14 08:28:46;;;;;;;49.88;31.05;;;;;;;;;;5902686;28;10000291;-68
2020/12/14 08:31:48;;;;;;;42.47;28.58;;;;;;;;;;6253086;28;20045;-69
2020/12/14 08:34:49;;;;;;;48.08;27.88;;;;;;;;;;6262434;28;20060;-69
2020/12/14 08:37:51;;;;;;;42.15;28.55;;;;;;;;;;6254695;28;20188;-70
2020/12/14 08:40:54;;;;;;;40.50;28.63;;;;;;;;;;6272268;28;20071;-70
2020/12/14 08:43:55;;;;;;;40.13;27.33;;;;;;;;;;6268391;28;20044;-70
2020/12/14 08:46:57;;;;;;;46.78;29.55;;;;;;;;;;6275489;28;20058;-68
2020/12/14 08:49:58;;;;;;;45.47;29.35;;;;;;;;;;6275246;28;20093;-69
2020/12/14 08:53:00;;;;;;;42.90;28.92;;;;;;;;;;6282875;28;20098;-71
2020/12/14 08:56:03;;;;;;;46.70;29.02;;;;;;;;;;6270285;28;20202;-71
2020/12/14 08:59:04;;;;;;;44.03;29.38;;;;;;;;;;6244800;28;20045;-69
2020/12/14 09:02:08;;;;;;;44.67;28.90;;;;;;;;;;6251910;28;20045;-69
2020/12/14 09:05:16;;;;;;;40.63;28.13;;;;;;;;;;6257296;28;20049;-69
2020/12/14 09:08:18;;;;;;;41.60;27.33;;;;;;;;;;6250482;28;20066;-71
2020/12/14 09:11:19;;;;;;;42.95;27.60;;;;;;;;;;6257679;28;20504;-69
2020/12/14 09:14:22;;;;;;;39.45;28.42;;;;;;;;;;6260779;28;20122;-68
2020/12/14 09:17:24;;;;;;;37.17;26.70;;;;;;;;;;6255844;28;20168;-67
2020/12/14 09:20:25;;;;;;;42.28;27.38;;;;;;;;;;6257174;28;20705;-68
2020/12/14 09:23:27;;;;;;;38.92;27.05;;;;;;;;;;6257783;28;20139;-71
2020/12/14 09:26:28;;;;;;;35.78;25.48;;;;;;;;;;6266810;28;20136;-69
2020/12/14 09:29:29;;;;;;;37.80;27.50;;;;;;;;;;6259568;28;20598;-68
2020/12/14 09:32:31;;;;;;;36.67;26.75;;;;;;;;;;5560985;28;10000754;-69
2020/12/14 09:35:32;;;;;;;38.75;28.10;;;;;;;;;;6250366;28;20408;-69
2020/12/14 09:38:33;;;;;;;34.65;28.35;;;;;;;;;;6258906;28;20191;-70
2020/12/14 09:41:34;;;;;;;44.75;29.85;;;;;;;;;;6259237;28;20050;-70
2020/12/14 09:44:35;;;;;;;41.53;29.63;;;;;;;;;;6258365;28;20044;-70
2020/12/14 09:47:37;;;;;;;41.85;29.75;;;;;;;;;;6253635;28;20135;-69
2020/12/14 09:50:39;;;;;;;39.42;30.15;;;;;;;;;;6260790;28;20118;-70
2020/12/14 09:53:40;;;;;;;40.97;30.05;;;;;;;;;;6256816;28;20098;-69
2020/12/14 09:56:42;;;;;;;40.70;31.00;;;;;;;;;;6252476;28;20522;-71
2020/12/14 09:59:43;;;;;;;39.10;30.73;;;;;;;;;;6258405;28;20111;-70
2020/12/14 10:02:45;;;;;;;40.10;30.48;;;;;;;;;;6250785;28;20191;-69
2020/12/14 10:05:47;;;;;;;41.55;30.52;;;;;;;;;;6253270;28;20077;-68
2020/12/14 10:08:49;;;;;;;35.45;29.42;;;;;;;;;;5907291;28;10000397;-71
2020/12/14 10:11:50;;;;;;;39.50;30.23;;;;;;;;;;6255230;28;20579;-68
2020/12/14 10:14:53;;;;;;;38.05;30.25;;;;;;;;;;6248895;28;20901;-70
2020/12/14 10:17:55;;;;;;;41.83;30.02;;;;;;;;;;6261772;28;20655;-70
2020/12/14 10:20:56;;;;;;;43.63;31.35;;;;;;;;;;6264732;28;20128;-70
2020/12/14 10:23:57;;;;;;;43.95;32.17;;;;;;;;;;6259941;28;20187;-67
2020/12/14 10:26:58;;;;;;;51.15;32.17;;;;;;;;;;6259534;28;20170;-69
2020/12/14 10:30:00;;;;;;;47.70;33.20;;;;;;;;;;6263300;28;20118;-68
2020/12/14 10:33:04;;;;;;;50.47;32.85;;;;;;;;;;6261466;28;20059;-69
2020/12/14 10:36:07;;;;;;;49.75;35.33;;;;;;;;;;6256341;28;20416;-69
2020/12/14 10:39:08;;;;;;;53.38;35.15;;;;;;;;;;6269371;28;20128;-69
2020/12/14 10:42:09;;;;;;;51.35;34.53;;;;;;;;;;6259403;28;20056;-69
2020/12/14 10:45:10;;;;;;;45.95;34.38;;;;;;;;;;6258623;28;20041;-70
2020/12/14 10:48:12;;;;;;;52.55;35.88;;;;;;;;;;6257030;28;20618;-68
2020/12/14 10:51:13;;;;;;;50.15;36.20;;;;;;;;;;6259356;28;20696;-70
2020/12/14 10:54:14;;;;;;;48.10;35.28;;;;;;;;;;6260200;28;20094;-68
2020/12/14 10:57:15;;;;;;;50.83;35.08;;;;;;;;;;6263188;28;20174;-68
2020/12/14 11:00:19;;;;;;;52.08;35.20;;;;;;;;;;6254378;28;20127;-69
2020/12/14 11:03:23;;;;;;;49.53;34.65;;;;;;;;;;6265616;28;20464;-69
2020/12/14 11:06:30;;;;;;;51.00;34.78;;;;;;;;;;6265928;28;20057;-69
2020/12/14 11:09:31;;;;;;;44.95;34.45;;;;;;;;;;6263785;28;20048;-68
2020/12/14 11:12:32;;;;;;;46.95;33.00;;;;;;;;;;6277010;28;20122;-68
2020/12/14 11:15:33;;;;;;;45.20;32.55;;;;;;;;;;6259723;28;20187;-68
2020/12/14 11:18:35;;;;;;;40.67;32.10;;;;;;;;;;6260544;28;20194;-68
2020/12/14 11:21:36;;;;;;;42.72;32.30;;;;;;;;;;6262590;28;20057;-72
2020/12/14 11:24:37;;;;;;;45.20;31.63;;;;;;;;;;6262610;28;20110;-68
2020/12/14 11:27:38;;;;;;;43.35;32.40;;;;;;;;;;6260978;28;20049;-69
2020/12/14 11:30:39;;;;;;;41.13;30.77;;;;;;;;;;6251447;28;20049;-69
2020/12/14 11:33:41;;;;;;;42.17;30.85;;;;;;;;;;6258530;28;20096;-69
2020/12/14 11:36:42;;;;;;;43.25;31.50;;;;;;;;;;6262077;28;20144;-72
2020/12/14 11:39:43;;;;;;;42.15;30.70;;;;;;;;;;6256072;28;20086;-69
2020/12/14 11:42:44;;;;;;;38.78;31.23;;;;;;;;;;6255143;28;20051;-69
2020/12/14 11:45:46;;;;;;;36.75;30.90;;;;;;;;;;6264080;28;20045;-69
2020/12/14 11:48:48;;;;;;;37.97;29.95;;;;;;;;;;6256727;28;20052;-71
2020/12/14 11:51:49;;;;;;;38.55;30.13;;;;;;;;;;6259280;28;20051;-70
2020/12/14 11:54:50;;;;;;;39.55;30.77;;;;;;;;;;6261949;28;20060;-71
2020/12/14 11:57:51;;;;;;;35.13;28.15;;;;;;;;;;6263381;28;20102;-70
2020/12/14 12:00:52;;;;;;;35.35;27.23;;;;;;;;;;6254734;28;20056;-70
2020/12/14 12:03:54;;;;;;;34.08;28.08;;;;;;;;;;6261217;28;20071;-70
2020/12/14 12:06:55;;;;;;;34.38;26.70;;;;;;;;;;6258071;28;20117;-69
2020/12/14 12:09:56;;;;;;;32.63;26.92;;;;;;;;;;6249760;28;20042;-69
2020/12/14 12:12:57;;;;;;;32.75;26.73;;;;;;;;;;6250913;28;20045;-69
2020/12/14 12:15:58;;;;;;;31.67;24.25;;;;;;;;;;5904681;28;10000600;-70
2020/12/14 12:19:00;;;;;;;27.90;22.70;;;;;;;;;;6248512;28;20147;-71
2020/12/14 12:22:01;;;;;;;29.98;23.63;;;;;;;;;;6257405;28;20103;-71
2020/12/14 12:25:04;;;;;;;25.20;21.83;;;;;;;;;;6250001;28;21550;-70
2020/12/14 12:28:05;;;;;;;25.73;21.95;;;;;;;;;;6257920;28;20123;-68
2020/12/14 12:31:07;;;;;;;24.67;22.10;;;;;;;;;;6252141;28;20049;-73
2020/12/14 12:34:09;;;;;;;31.77;24.67;;;;;;;;;;6253688;28;20112;-73
2020/12/14 12:37:10;;;;;;;26.15;22.38;;;;;;;;;;6249656;28;20187;-71
2020/12/14 12:40:11;;;;;;;27.48;23.08;;;;;;;;;;6251976;28;20761;-73
2020/12/14 12:43:12;;;;;;;27.90;22.45;;;;;;;;;;6259147;28;20076;-73
2020/12/14 12:46:13;;;;;;;30.23;24.10;;;;;;;;;;6263997;28;20049;-72
2020/12/14 12:49:15;;;;;;;28.58;22.98;;;;;;;;;;6260424;28;20056;-75
2020/12/14 12:52:16;;;;;;;31.88;25.10;;;;;;;;;;6258817;28;20392;-74
2020/12/14 12:55:17;;;;;;;29.15;24.67;;;;;;;;;;6261389;28;20716;-74
2020/12/14 12:58:18;;;;;;;31.08;25.08;;;;;;;;;;6256847;28;20124;-67
2020/12/14 13:01:19;;;;;;;31.40;25.55;;;;;;;;;;6255205;28;20119;-72
2020/12/14 13:04:21;;;;;;;29.92;23.48;;;;;;;;;;6252232;28;20140;-70
2020/12/14 13:07:22;;;;;;;31.27;23.63;;;;;;;;;;6256121;28;20057;-68
2020/12/14 13:10:23;;;;;;;31.08;22.52;;;;;;;;;;6251305;28;20127;-69
2020/12/14 13:13:24;;;;;;;25.63;21.60;;;;;;;;;;5552646;28;10000580;-69
2020/12/14 13:16:25;;;;;;;27.15;21.83;;;;;;;;;;6252016;28;20130;-71
2020/12/14 13:19:27;;;;;;;28.55;22.45;;;;;;;;;;6255111;28;20086;-69
2020/12/14 13:22:28;;;;;;;24.90;21.27;;;;;;;;;;6251785;28;20403;-69
2020/12/14 13:25:29;;;;;;;26.33;20.73;;;;;;;;;;6251902;28;20142;-68
2020/12/14 13:28:30;;;;;;;29.83;22.05;;;;;;;;;;6254892;28;20127;-71
2020/12/14 13:31:32;;;;;;;26.75;20.80;;;;;;;;;;6253135;28;20118;-70
2020/12/14 13:34:36;;;;;;;29.40;21.48;;;;;;;;;;6256041;28;20461;-70
2020/12/14 13:37:38;;;;;;;27.08;21.40;;;;;;;;;;6255126;28;20182;-70
2020/12/14 13:40:39;;;;;;;27.88;20.92;;;;;;;;;;6252620;28;20045;-69
2020/12/14 13:43:40;;;;;;;27.58;21.75;;;;;;;;;;6249134;28;20563;-69
2020/12/14 13:46:41;;;;;;;23.77;21.15;;;;;;;;;;6260873;28;20095;-70
2020/12/14 13:49:43;;;;;;;26.13;21.35;;;;;;;;;;6256986;28;20140;-70
2020/12/14 13:52:44;;;;;;;25.95;21.40;;;;;;;;;;6259273;28;20132;-69
2020/12/14 13:55:45;;;;;;;27.27;23.80;;;;;;;;;;6252627;28;20060;-69
2020/12/14 13:58:46;;;;;;;38.00;25.70;;;;;;;;;;6255157;28;20057;-71
2020/12/14 14:01:50;;;;;;;31.48;26.38;;;;;;;;;;6263487;28;20049;-71
2020/12/14 14:04:52;;;;;;;;;;;;;;;;;;6266147;28;20162;-68
2020/12/14 14:07:55;;;;;;;25.42;20.98;;;;;;;;;;6258607;28;19924;-70
2020/12/14 14:10:56;;;;;;;29.70;23.90;;;;;;;;;;6256853;28;20049;-69
2020/12/14 14:13:57;;;;;;;30.92;24.58;;;;;;;;;;6266438;28;20053;-68
2020/12/14 14:16:58;;;;;;;30.05;24.30;;;;;;;;;;6262215;28;20448;-68
2020/12/14 14:20:00;;;;;;;37.40;25.30;;;;;;;;;;6262882;28;20102;-69
2020/12/14 14:23:01;;;;;;;35.50;25.38;;;;;;;;;;6260707;28;20148;-67
2020/12/14 14:26:02;;;;;;;29.73;24.70;;;;;;;;;;6260191;28;20045;-71
2020/12/14 14:29:03;;;;;;;31.20;24.92;;;;;;;;;;6262192;28;20105;-71
2020/12/14 14:32:04;;;;;;;32.70;24.92;;;;;;;;;;6263296;28;20048;-71
2020/12/14 14:35:07;;;;;;;30.92;27.50;;;;;;;;;;6262395;28;20045;-72
2020/12/14 14:38:08;;;;;;;33.70;26.23;;;;;;;;;;6260331;28;20119;-71
2020/12/14 14:41:09;;;;;;;32.42;26.13;;;;;;;;;;6262528;28;20569;-71
2020/12/14 14:44:10;;;;;;;33.33;25.77;;;;;;;;;;6258248;28;20128;-75
2020/12/14 14:47:12;;;;;;;30.63;25.98;;;;;;;;;;6262614;28;20131;-72
2020/12/14 14:50:14;;;;;;;29.92;25.92;;;;;;;;;;6258899;28;20142;-72
2020/12/14 14:53:15;;;;;;;32.70;26.95;;;;;;;;;;6258812;28;20040;-71
2020/12/14 14:56:16;;;;;;;35.13;27.10;;;;;;;;;;6260256;28;20415;-71
2020/12/14 14:59:17;;;;;;;34.00;27.50;;;;;;;;;;6250181;28;20099;-72
2020/12/14 15:02:18;;;;;;;36.28;28.42;;;;;;;;;;6261440;28;20129;-73
2020/12/14 15:05:20;;;;;;;35.55;27.48;;;;;;;;;;6260673;28;20129;-70
2020/12/14 15:08:21;;;;;;;32.40;27.55;;;;;;;;;;6256124;28;21238;-74
2020/12/14 15:11:25;;;;;;;35.92;27.75;;;;;;;;;;6260483;28;20041;-72
2020/12/14 15:14:26;;;;;;;39.58;28.45;;;;;;;;;;6257893;28;20053;-73
2020/12/14 15:17:27;;;;;;;33.60;27.00;;;;;;;;;;6250835;28;20094;-74
2020/12/14 15:20:29;;;;;;;38.38;28.48;;;;;;;;;;6257093;28;20186;-72
2020/12/14 15:23:30;;;;;;;36.03;27.30;;;;;;;;;;6248311;28;21661;-72
2020/12/14 15:26:31;;;;;;;35.88;27.15;;;;;;;;;;6235235;28;20045;-72
2020/12/14 15:29:33;;;;;;;38.88;28.48;;;;;;;;;;6255943;28;21193;-73
2020/12/14 15:32:34;;;;;;;41.08;32.55;;;;;;;;;;6255196;28;20601;-71
2020/12/14 15:35:35;;;;;;;41.70;33.28;;;;;;;;;;6254155;28;20243;-71
2020/12/14 15:38:37;;;;;;;43.53;34.03;;;;;;;;;;6255460;28;20140;-71
2020/12/14 15:41:38;;;;;;;43.60;35.80;;;;;;;;;;6249096;28;20159;-70
2020/12/14 15:44:39;;;;;;;45.58;34.78;;;;;;;;;;6257412;28;20049;-71
2020/12/14 15:47:42;;;;;;;42.50;34.97;;;;;;;;;;6256596;28;20082;-73
2020/12/14 15:50:44;;;;;;;44.75;34.92;;;;;;;;;;6286394;28;20175;-71
2020/12/14 15:53:45;;;;;;;46.88;35.47;;;;;;;;;;6282598;28;20053;-74
2020/12/14 15:56:48;;;;;;;45.45;35.35;;;;;;;;;;6280587;28;20185;-72
2020/12/14 15:59:50;;;;;;;48.67;36.58;;;;;;;;;;6278773;28;20105;-72
2020/12/14 16:02:51;;;;;;;45.72;36.30;;;;;;;;;;6284341;28;20048;-73
2020/12/14 16:05:53;;;;;;;45.78;37.00;;;;;;;;;;6283665;28;20881;-72
2020/12/14 16:08:54;;;;;;;44.53;35.45;;;;;;;;;;6286188;28;20048;-72
2020/12/14 16:11:58;;;;;;;54.25;35.45;;;;;;;;;;6287879;28;20123;-72
2020/12/14 16:14:59;;;;;;;47.67;34.95;;;;;;;;;;6277136;28;20215;-72
2020/12/14 16:18:00;;;;;;;46.20;36.10;;;;;;;;;;6287792;28;20166;-70
2020/12/14 16:21:02;;;;;;;48.88;35.38;;;;;;;;;;6276163;28;20045;-72
2020/12/14 16:24:03;;;;;;;49.28;36.22;;;;;;;;;;6273273;28;20054;-70
2020/12/14 16:27:04;;;;;;;47.50;35.75;;;;;;;;;;6269071;28;20182;-72
2020/12/14 16:30:06;;;;;;;47.70;35.28;;;;;;;;;;6278480;28;20423;-71
2020/12/14 16:33:07;;;;;;;48.05;35.80;;;;;;;;;;6283256;28;20127;-71
2020/12/14 16:36:09;;;;;;;46.90;36.78;;;;;;;;;;6286170;28;20045;-70
2020/12/14 16:39:10;;;;;;;47.15;36.40;;;;;;;;;;6270572;28;20102;-72
2020/12/14 16:42:11;;;;;;;50.70;38.65;;;;;;;;;;6264299;28;20048;-71
2020/12/14 16:45:12;;;;;;;44.95;36.95;;;;;;;;;;6262735;28;20057;-71
2020/12/14 16:48:13;;;;;;;50.67;38.90;;;;;;;;;;6274815;28;20052;-71
2020/12/14 16:51:15;;;;;;;52.33;37.83;;;;;;;;;;6276796;28;20468;-70
2020/12/14 16:54:16;;;;;;;54.58;40.65;;;;;;;;;;6283291;28;20535;-70
2020/12/14 16:57:18;;;;;;;53.38;39.35;;;;;;;;;;6284450;28;20092;-71
2020/12/14 17:00:19;;;;;;;49.83;38.42;;;;;;;;;;6282825;28;20067;-71
2020/12/14 17:03:20;;;;;;;53.28;38.08;;;;;;;;;;6275118;28;20131;-73
2020/12/14 17:06:22;;;;;;;51.17;39.55;;;;;;;;;;6276962;28;20078;-72
2020/12/14 17:09:23;;;;;;;51.15;39.53;;;;;;;;;;6280524;28;20045;-73
2020/12/14 17:12:27;;;;;;;54.80;39.33;;;;;;;;;;6280425;28;20129;-72
2020/12/14 17:15:29;;;;;;;48.22;36.15;;;;;;;;;;6275805;28;20243;-72
2020/12/14 17:18:30;;;;;;;46.05;34.90;;;;;;;;;;6282619;28;20135;-72
2020/12/14 17:21:32;;;;;;;49.55;37.45;;;;;;;;;;6278099;28;20044;-72
2020/12/14 17:24:36;;;;;;;50.50;35.60;;;;;;;;;;6280828;28;20110;-73
2020/12/14 17:27:38;;;;;;;48.43;36.97;;;;;;;;;;6285282;28;20071;-72
2020/12/14 17:30:40;;;;;;;52.55;38.65;;;;;;;;;;6288023;28;20040;-72
2020/12/14 17:33:43;;;;;;;51.83;39.03;;;;;;;;;;6287942;28;20078;-72
2020/12/14 17:36:45;;;;;;;55.27;39.30;;;;;;;;;;6275684;28;20261;-71